Terminal Aerodrome Forecast
Issued by NWS

Home | Current Version | Previous Version | Text Only | Print | Product List | Glossary On
Versions: 1 2 3 4 5 6 7 8 9 10 11 12 13 14 15
000
FTUS45 KABQ 281900 AAA
TAFFMN
TAF AMD
KFMN 281924Z 2819/2918 16011KT P6SM VCTS SCT060CB BKN100
      TEMPO 2819/2823 VRB15G25KT -SHRA BKN060
     FM290000 12010KT P6SM VCSH BKN100
     FM290900 VRB05KT P6SM SCT120 BKN200=

USA.gov is the U.S. government's official web portal to all federal, state and local government web resources and services.